createdAt,value
2024-01-10T00:01:04.017Z,-4.00
2024-01-10T00:03:31.234Z,-4.00
2024-01-10T00:05:58.707Z,-4.00
2024-01-10T00:08:25.866Z,-4.00
2024-01-10T00:10:55.905Z,-4.10
2024-01-10T00:13:23.756Z,-4.10
2024-01-10T00:15:50.999Z,-4.10
2024-01-10T00:18:18.050Z,-4.10
2024-01-10T00:20:45.462Z,-4.10
2024-01-10T00:23:12.590Z,-4.10
2024-01-10T00:25:40.276Z,-4.10
2024-01-10T00:28:07.383Z,-4.10
2024-01-10T00:30:34.377Z,-4.10
2024-01-10T00:33:01.737Z,-4.10
2024-01-10T00:35:28.950Z,-4.00
2024-01-10T00:37:55.919Z,-4.10
2024-01-10T00:40:23.053Z,-4.10
2024-01-10T00:42:50.079Z,-4.00
2024-01-10T00:45:17.845Z,-4.10
2024-01-10T00:47:45.080Z,-4.20
2024-01-10T00:50:12.152Z,-4.20
2024-01-10T00:52:39.537Z,-4.30
2024-01-10T00:55:06.779Z,-4.30
2024-01-10T00:57:33.972Z,-4.30
2024-01-10T01:00:01.106Z,-4.40
2024-01-10T01:02:28.645Z,-4.40
2024-01-10T01:04:56.172Z,-4.40
2024-01-10T01:07:23.371Z,-4.40
2024-01-10T01:09:50.417Z,-4.40
2024-01-10T01:12:17.520Z,-4.40
2024-01-10T01:14:44.569Z,-4.30
2024-01-10T01:17:11.758Z,-4.10
2024-01-10T01:19:39.087Z,-4.10
2024-01-10T01:22:06.046Z,-4.20
2024-01-10T01:24:33.468Z,-4.30
2024-01-10T01:27:00.726Z,-4.30
2024-01-10T01:29:27.786Z,-4.40
2024-01-10T01:31:55.208Z,-4.50
2024-01-10T01:34:22.258Z,-4.50
2024-01-10T01:36:50.068Z,-4.50
2024-01-10T01:39:17.048Z,-4.60
2024-01-10T01:41:44.144Z,-4.60
2024-01-10T01:44:11.203Z,-4.60
2024-01-10T01:46:38.806Z,-4.70
2024-01-10T01:49:06.170Z,-4.70
2024-01-10T01:51:35.076Z,-4.70
2024-01-10T01:54:02.249Z,-4.60
2024-01-10T01:56:29.406Z,-4.60
2024-01-10T01:58:57.179Z,-4.70
2024-01-10T02:01:24.889Z,-4.70
2024-01-10T02:03:52.149Z,-4.70
2024-01-10T02:06:19.137Z,-4.80
2024-01-10T02:08:46.398Z,-4.70
2024-01-10T02:11:13.834Z,-4.70
2024-01-10T02:13:42.192Z,-4.70
2024-01-10T02:16:10.308Z,-4.70
2024-01-10T02:18:37.422Z,-4.70
2024-01-10T02:21:04.734Z,-4.80
2024-01-10T02:23:33.038Z,-4.80
2024-01-10T02:26:00.136Z,-4.80
2024-01-10T02:28:28.269Z,-4.80
2024-01-10T02:30:56.098Z,-4.80
2024-01-10T02:33:23.410Z,-4.90
2024-01-10T02:35:51.181Z,-4.80
2024-01-10T02:38:21.446Z,-4.80
2024-01-10T02:40:48.603Z,-4.90
2024-01-10T02:43:15.988Z,-4.90
2024-01-10T02:45:43.501Z,-4.90
2024-01-10T02:48:10.951Z,-4.90
2024-01-10T02:50:39.838Z,-4.90
2024-01-10T02:53:07.061Z,-4.90
2024-01-10T02:55:34.128Z,-5.00
2024-01-10T02:58:01.378Z,-5.00
2024-01-10T03:00:28.239Z,-5.00
2024-01-10T03:02:55.571Z,-5.00
2024-01-10T03:05:22.631Z,-5.00
2024-01-10T03:07:49.684Z,-5.00
2024-01-10T03:10:16.767Z,-5.00
2024-01-10T03:12:43.773Z,-5.00
2024-01-10T03:15:10.929Z,-5.00
2024-01-10T03:17:37.862Z,-5.00
2024-01-10T03:20:05.927Z,-5.10
2024-01-10T03:22:36.212Z,-5.10
2024-01-10T03:25:03.926Z,-5.10
2024-01-10T03:27:31.009Z,-5.10
2024-01-10T03:29:58.036Z,-5.10
2024-01-10T03:32:25.140Z,-5.20
2024-01-10T03:34:53.469Z,-5.20
2024-01-10T03:37:20.753Z,-5.20
2024-01-10T03:39:47.871Z,-5.20
2024-01-10T03:42:16.802Z,-5.30
2024-01-10T03:44:44.035Z,-5.20
2024-01-10T03:47:11.162Z,-5.30
2024-01-10T03:49:38.784Z,-5.30
2024-01-10T03:52:06.309Z,-5.30
2024-01-10T03:54:34.826Z,-5.30
2024-01-10T03:57:02.107Z,-5.20
2024-01-10T03:59:29.123Z,-5.30
2024-01-10T04:01:56.331Z,-5.30
2024-01-10T04:04:23.729Z,-5.30
2024-01-10T04:06:50.669Z,-5.30
2024-01-10T04:09:17.710Z,-5.30
2024-01-10T04:11:44.795Z,-5.20
2024-01-10T04:14:11.938Z,-5.20
2024-01-10T04:16:38.980Z,-5.20
2024-01-10T04:19:06.069Z,-5.10
2024-01-10T04:21:33.413Z,-5.10
2024-01-10T04:24:00.562Z,-5.10
2024-01-10T04:26:27.642Z,-5.10
2024-01-10T04:28:54.983Z,-5.10
2024-01-10T04:31:22.377Z,-4.90
2024-01-10T04:33:49.470Z,-4.70
2024-01-10T04:36:16.515Z,-4.80
2024-01-10T04:38:43.521Z,-4.90
2024-01-10T04:41:10.810Z,-5.10
2024-01-10T04:43:38.114Z,-5.20
2024-01-10T04:46:05.229Z,-5.10
2024-01-10T04:48:32.095Z,-5.20
2024-01-10T04:50:59.209Z,-5.30
2024-01-10T04:53:26.359Z,-5.40
2024-01-10T04:55:53.396Z,-5.40
2024-01-10T04:58:20.776Z,-5.50
2024-01-10T05:00:47.760Z,-5.50
2024-01-10T05:03:15.911Z,-5.50
2024-01-10T05:05:43.174Z,-5.50
2024-01-10T05:08:10.312Z,-5.50
2024-01-10T05:10:37.670Z,-5.50
2024-01-10T05:13:04.810Z,-5.50
2024-01-10T05:15:31.702Z,-5.60
2024-01-10T05:17:58.880Z,-5.50
2024-01-10T05:20:25.783Z,-5.50
2024-01-10T05:22:53.003Z,-5.40
2024-01-10T05:25:20.358Z,-5.40
2024-01-10T05:27:47.755Z,-5.30
2024-01-10T05:30:15.200Z,-5.30
2024-01-10T05:32:43.135Z,-5.40
2024-01-10T05:35:11.476Z,-5.50
2024-01-10T05:37:38.526Z,-5.40
2024-01-10T05:40:07.137Z,-5.40
2024-01-10T05:42:34.280Z,-5.40
2024-01-10T05:45:03.324Z,-5.40
2024-01-10T05:47:30.561Z,-5.50
2024-01-10T05:49:57.816Z,-5.50
2024-01-10T05:52:25.055Z,-5.60
2024-01-10T05:54:52.481Z,-5.50
2024-01-10T05:57:19.728Z,-5.50
2024-01-10T05:59:46.783Z,-5.50
2024-01-10T06:02:17.192Z,-5.50
2024-01-10T06:04:44.249Z,-5.50
2024-01-10T06:07:11.450Z,-5.50
2024-01-10T06:09:38.600Z,-5.50
2024-01-10T06:12:06.298Z,-5.50
2024-01-10T06:14:33.751Z,-5.50
2024-01-10T06:17:02.413Z,-5.40
2024-01-10T06:19:29.758Z,-5.40
2024-01-10T06:21:57.156Z,-5.40
2024-01-10T06:24:24.204Z,-5.40
2024-01-10T06:26:51.376Z,-5.40
2024-01-10T06:29:19.533Z,-5.40
2024-01-10T06:31:46.654Z,-5.30
2024-01-10T06:34:13.587Z,-5.30
2024-01-10T06:36:40.677Z,-5.20
2024-01-10T06:39:10.433Z,-5.30
2024-01-10T06:41:37.629Z,-5.30
2024-01-10T06:44:05.457Z,-5.40
2024-01-10T06:46:33.129Z,-5.40
2024-01-10T06:49:00.365Z,-5.40
2024-01-10T06:51:30.340Z,-5.40
2024-01-10T06:54:03.977Z,-5.40
2024-01-10T06:56:34.834Z,-5.40
2024-01-10T06:59:02.413Z,-5.50
2024-01-10T07:01:29.539Z,-5.40
2024-01-10T07:03:56.979Z,-5.40
2024-01-10T07:06:24.409Z,-5.40
2024-01-10T07:08:52.233Z,-5.40
2024-01-10T07:11:21.212Z,-5.50
2024-01-10T07:13:48.410Z,-5.50
2024-01-10T07:16:16.457Z,-5.40
2024-01-10T07:18:44.525Z,-5.50
2024-01-10T07:21:11.710Z,-5.50
2024-01-10T07:23:41.616Z,-5.40
2024-01-10T07:26:09.019Z,-5.40
2024-01-10T07:28:35.982Z,-5.40
2024-01-10T07:31:03.853Z,-5.30
2024-01-10T07:33:34.396Z,-5.30
2024-01-10T07:36:02.440Z,-5.30
2024-01-10T07:38:29.829Z,-5.20
2024-01-10T07:40:57.030Z,-5.10
2024-01-10T07:43:24.053Z,-5.20
2024-01-10T07:45:50.866Z,-5.30
2024-01-10T07:48:18.139Z,-5.30
2024-01-10T07:50:45.975Z,-5.20
2024-01-10T07:53:14.374Z,-5.20
2024-01-10T07:55:41.698Z,-5.20
2024-01-10T07:58:08.706Z,-5.20
2024-01-10T08:00:36.269Z,-5.30
2024-01-10T08:03:03.754Z,-5.30
2024-01-10T08:05:30.869Z,-5.30
2024-01-10T08:07:59.500Z,-5.30
2024-01-10T08:10:28.371Z,-5.30
2024-01-10T08:12:55.452Z,-5.10
2024-01-10T08:15:22.726Z,-5.10
2024-01-10T08:17:50.590Z,-4.90
2024-01-10T08:20:22.201Z,-4.80
2024-01-10T08:22:49.833Z,-4.60
2024-01-10T08:25:19.751Z,-4.60
2024-01-10T08:27:47.049Z,-4.80
2024-01-10T08:30:14.264Z,-4.70
2024-01-10T08:32:41.547Z,-4.60
2024-01-10T08:35:10.619Z,-4.80
2024-01-10T08:37:38.772Z,-4.60
2024-01-10T08:40:08.789Z,-4.60
2024-01-10T08:42:36.105Z,-4.50
2024-01-10T08:45:03.213Z,-4.60
2024-01-10T08:47:32.711Z,-4.50
2024-01-10T08:50:00.047Z,-4.50
2024-01-10T08:52:27.270Z,-4.50
2024-01-10T08:54:54.195Z,-4.50
2024-01-10T08:57:21.287Z,-4.40
2024-01-10T08:59:48.235Z,-4.40
2024-01-10T09:02:15.501Z,-4.50
2024-01-10T09:04:43.021Z,-4.40
2024-01-10T09:07:10.616Z,-4.50
2024-01-10T09:09:37.654Z,-4.60
2024-01-10T09:12:05.098Z,-4.60
2024-01-10T09:14:32.304Z,-4.50
2024-01-10T09:17:03.356Z,-4.50
2024-01-10T09:19:31.918Z,-4.50
2024-01-10T09:21:59.116Z,-4.50
2024-01-10T09:24:30.087Z,-4.50
2024-01-10T09:26:58.064Z,-4.40
2024-01-10T09:29:27.353Z,-4.20
2024-01-10T09:31:54.912Z,-4.20
2024-01-10T09:34:22.125Z,-4.00
2024-01-10T09:36:49.314Z,-4.00
2024-01-10T09:39:18.004Z,-4.00
2024-01-10T09:41:51.386Z,-4.10
2024-01-10T09:44:22.861Z,-3.90
2024-01-10T09:46:55.390Z,-3.90
2024-01-10T09:49:23.998Z,-3.90
2024-01-10T09:51:54.529Z,-3.70
2024-01-10T09:54:25.581Z,-3.70
2024-01-10T09:56:52.628Z,-3.60
2024-01-10T09:59:19.693Z,-3.70
2024-01-10T10:01:46.678Z,-3.60
2024-01-10T10:04:14.337Z,-3.50
2024-01-10T10:06:41.758Z,-3.50
2024-01-10T10:09:10.070Z,-3.40
2024-01-10T10:11:38.251Z,-3.20
2024-01-10T10:14:19.514Z,-3.10
2024-01-10T10:16:46.605Z,-3.00
2024-01-10T10:19:21.254Z,-2.90
2024-01-10T10:21:52.531Z,-2.90
2024-01-10T10:24:20.976Z,-3.10
2024-01-10T10:26:49.028Z,-2.90
2024-01-10T10:29:20.227Z,-2.90
2024-01-10T10:31:50.453Z,-3.00
2024-01-10T10:34:22.159Z,-2.90
2024-01-10T10:36:49.834Z,-2.80
2024-01-10T10:39:20.840Z,-2.70
2024-01-10T10:41:51.301Z,-2.70
2024-01-10T10:44:22.210Z,-2.70
2024-01-10T10:47:05.526Z,-2.70
2024-01-10T10:49:48.370Z,-2.70
2024-01-10T10:52:16.483Z,-2.60
2024-01-10T10:54:45.529Z,-2.40
2024-01-10T10:57:13.160Z,-2.20
2024-01-10T10:59:42.687Z,-2.20
2024-01-10T11:02:12.222Z,-2.20
2024-01-10T11:04:42.857Z,-2.30
2024-01-10T11:07:10.561Z,-2.10
2024-01-10T11:09:39.033Z,-1.50
2024-01-10T11:12:14.927Z,-0.70
2024-01-10T11:15:24.945Z,0.30
2024-01-10T11:18:16.670Z,0.90
2024-01-10T11:21:01.106Z,1.10
2024-01-10T11:23:28.810Z,0.70
2024-01-10T11:25:56.470Z,1.10
2024-01-10T11:28:26.866Z,2.20
2024-01-10T11:30:55.047Z,3.20
2024-01-10T11:33:40.818Z,3.70
2024-01-10T11:36:11.119Z,4.30
2024-01-10T11:38:55.751Z,4.90
2024-01-10T11:41:36.889Z,5.40
2024-01-10T11:44:14.799Z,5.80
2024-01-10T11:46:54.462Z,6.10
2024-01-10T11:49:22.932Z,6.40
2024-01-10T11:51:57.709Z,6.10
2024-01-10T11:54:39.863Z,5.00
2024-01-10T11:57:23.992Z,4.70
2024-01-10T11:59:55.264Z,4.90
2024-01-10T12:02:24.864Z,4.50
2024-01-10T12:04:52.448Z,4.10
2024-01-10T12:07:21.400Z,4.40
2024-01-10T12:09:49.224Z,4.50
2024-01-10T12:12:16.724Z,4.20
2024-01-10T12:14:47.632Z,4.50
2024-01-10T12:17:15.359Z,4.90
2024-01-10T12:19:47.251Z,5.20
2024-01-10T12:22:15.353Z,5.30
2024-01-10T12:24:49.729Z,5.80
2024-01-10T12:27:22.317Z,5.90
2024-01-10T12:29:52.356Z,6.10
2024-01-10T12:32:22.172Z,5.10
2024-01-10T12:34:49.365Z,5.50
2024-01-10T12:37:16.734Z,5.70
2024-01-10T12:39:44.577Z,5.70
2024-01-10T12:42:11.518Z,5.90
2024-01-10T12:44:38.608Z,6.50
2024-01-10T12:47:05.839Z,6.40
2024-01-10T12:49:33.332Z,7.50
2024-01-10T12:52:00.620Z,7.10
2024-01-10T12:54:28.963Z,6.50
2024-01-10T12:56:57.898Z,6.40
2024-01-10T12:59:24.863Z,6.10
2024-01-10T13:01:52.265Z,5.50
2024-01-10T13:04:20.505Z,5.10
2024-01-10T13:06:48.054Z,5.00
2024-01-10T13:09:15.357Z,5.10
2024-01-10T13:11:43.195Z,5.50
2024-01-10T13:14:10.991Z,5.00
2024-01-10T13:16:46.254Z,4.70
2024-01-10T13:19:21.091Z,4.70
2024-01-10T13:21:48.131Z,4.90
2024-01-10T13:24:15.083Z,5.30
2024-01-10T13:26:42.210Z,4.90
2024-01-10T13:29:11.042Z,4.90
2024-01-10T13:31:38.283Z,4.80
2024-01-10T13:34:05.654Z,3.90
2024-01-10T13:36:32.859Z,4.50
2024-01-10T13:38:59.841Z,4.50
2024-01-10T13:41:27.288Z,4.00
2024-01-10T13:43:54.853Z,4.40
2024-01-10T13:46:21.802Z,4.50
2024-01-10T13:48:48.943Z,5.00
2024-01-10T13:51:15.845Z,5.10
2024-01-10T13:53:42.939Z,4.30
2024-01-10T13:56:10.133Z,4.10
2024-01-10T13:58:37.079Z,3.90
2024-01-10T14:01:04.156Z,3.90
2024-01-10T14:03:33.561Z,4.10
2024-01-10T14:06:01.894Z,3.80
2024-01-10T14:08:29.478Z,3.40
2024-01-10T14:10:56.647Z,3.30
2024-01-10T14:13:27.290Z,3.10
2024-01-10T14:15:55.347Z,3.10
2024-01-10T14:18:22.775Z,3.10
2024-01-10T14:20:50.121Z,3.20
2024-01-10T14:23:19.207Z,3.40
2024-01-10T14:25:46.728Z,3.60
2024-01-10T14:28:14.051Z,3.70
2024-01-10T14:30:42.015Z,2.90
2024-01-10T14:33:09.745Z,2.00
2024-01-10T14:35:37.439Z,1.40
2024-01-10T14:38:04.794Z,0.80
2024-01-10T14:40:32.201Z,0.60
2024-01-10T14:42:59.995Z,0.60
2024-01-10T14:45:27.050Z,0.70
2024-01-10T14:47:54.299Z,0.80
2024-01-10T14:50:21.835Z,0.80
2024-01-10T14:52:48.995Z,0.60
2024-01-10T14:55:16.169Z,0.60
2024-01-10T14:57:43.402Z,0.50
2024-01-10T15:00:11.664Z,0.50
2024-01-10T15:02:39.978Z,0.60
2024-01-10T15:05:07.882Z,0.40
2024-01-10T15:07:35.019Z,0.30
2024-01-10T15:10:04.280Z,0.60
2024-01-10T15:12:32.771Z,0.70
2024-01-10T15:15:01.198Z,0.50
2024-01-10T15:17:28.613Z,0.50
2024-01-10T15:19:55.842Z,0.70
2024-01-10T15:22:23.005Z,0.60
2024-01-10T15:24:50.232Z,0.60
2024-01-10T15:27:19.931Z,0.40
2024-01-10T15:29:53.057Z,0.40
2024-01-10T15:32:23.873Z,0.50
2024-01-10T15:34:51.028Z,0.50
2024-01-10T15:37:18.090Z,0.40
2024-01-10T15:39:45.021Z,0.40
2024-01-10T15:42:12.128Z,0.20
2024-01-10T15:44:43.959Z,0.00
2024-01-10T15:47:11.460Z,0.00
2024-01-10T15:49:40.203Z,0.20
2024-01-10T15:52:08.560Z,0.30
2024-01-10T15:54:39.120Z,0.40
2024-01-10T15:57:07.467Z,0.20
2024-01-10T15:59:34.529Z,-0.10
2024-01-10T16:02:02.683Z,-0.10
2024-01-10T16:04:29.787Z,-0.20
2024-01-10T16:06:56.862Z,-0.30
2024-01-10T16:09:23.703Z,-0.40
2024-01-10T16:11:51.147Z,-0.40
2024-01-10T16:14:18.341Z,-0.30
2024-01-10T16:16:45.400Z,-0.50
2024-01-10T16:19:13.132Z,-0.50
2024-01-10T16:21:41.002Z,-0.70
2024-01-10T16:24:09.286Z,-0.80
2024-01-10T16:26:37.540Z,-0.90
2024-01-10T16:29:07.778Z,-0.90
2024-01-10T16:31:34.975Z,-0.90
2024-01-10T16:34:02.291Z,-1.00
2024-01-10T16:36:29.624Z,-1.10
2024-01-10T16:38:56.825Z,-1.20
2024-01-10T16:41:24.165Z,-1.20
2024-01-10T16:43:51.318Z,-1.20
2024-01-10T16:46:18.493Z,-1.20
2024-01-10T16:48:45.748Z,-1.30
2024-01-10T16:51:13.093Z,-1.30
2024-01-10T16:53:40.133Z,-1.30
2024-01-10T16:56:08.579Z,-1.30
2024-01-10T16:58:35.780Z,-1.40
2024-01-10T17:01:02.870Z,-1.50
2024-01-10T17:03:30.376Z,-1.50
2024-01-10T17:05:57.513Z,-1.60
2024-01-10T17:08:26.598Z,-1.60
2024-01-10T17:10:54.021Z,-1.70
2024-01-10T17:13:23.312Z,-1.70
2024-01-10T17:15:50.450Z,-1.70
2024-01-10T17:18:20.391Z,-1.70
2024-01-10T17:20:47.603Z,-1.70
2024-01-10T17:23:15.644Z,-1.80
2024-01-10T17:25:42.894Z,-1.80
2024-01-10T17:28:09.919Z,-1.90
2024-01-10T17:30:36.972Z,-1.90
2024-01-10T17:33:09.925Z,-1.90
2024-01-10T17:35:37.719Z,-1.90
2024-01-10T17:38:06.887Z,-1.90
2024-01-10T17:40:34.273Z,-1.90
2024-01-10T17:43:01.571Z,-2.00
2024-01-10T17:45:28.685Z,-1.90
2024-01-10T17:47:55.833Z,-2.00
2024-01-10T17:50:25.322Z,-2.10
2024-01-10T17:52:52.837Z,-2.10
2024-01-10T17:55:20.442Z,-2.10
2024-01-10T17:57:47.573Z,-2.10
2024-01-10T18:00:15.581Z,-2.10
2024-01-10T18:02:42.946Z,-2.10
2024-01-10T18:05:10.793Z,-2.10
2024-01-10T18:07:37.868Z,-2.20
2024-01-10T18:10:05.696Z,-2.20
2024-01-10T18:12:32.660Z,-2.10
2024-01-10T18:14:59.825Z,-2.10
2024-01-10T18:17:26.942Z,-2.10
2024-01-10T18:19:54.230Z,-1.90
2024-01-10T18:22:21.211Z,-1.90
2024-01-10T18:24:48.361Z,-2.00
2024-01-10T18:27:15.377Z,-2.10
2024-01-10T18:29:42.456Z,-2.20
2024-01-10T18:32:09.755Z,-2.30
2024-01-10T18:34:36.885Z,-2.30
2024-01-10T18:37:04.075Z,-2.30
2024-01-10T18:39:31.070Z,-2.40
2024-01-10T18:41:58.062Z,-2.40
2024-01-10T18:44:25.263Z,-2.40
2024-01-10T18:46:52.856Z,-2.40
2024-01-10T18:49:20.040Z,-2.40
2024-01-10T18:51:47.691Z,-2.50
2024-01-10T18:54:14.868Z,-2.50
2024-01-10T18:56:42.093Z,-2.50
2024-01-10T18:59:09.129Z,-2.50
2024-01-10T19:01:36.090Z,-2.60
2024-01-10T19:04:03.117Z,-2.60
2024-01-10T19:06:30.547Z,-2.50
2024-01-10T19:08:57.761Z,-2.40
2024-01-10T19:11:25.876Z,-2.20
2024-01-10T19:13:53.077Z,-2.30
2024-01-10T19:16:20.127Z,-2.50
2024-01-10T19:18:47.131Z,-2.60
2024-01-10T19:21:14.207Z,-2.60
2024-01-10T19:23:44.113Z,-2.50
2024-01-10T19:26:24.820Z,-2.60
2024-01-10T19:28:53.015Z,-2.60
2024-01-10T19:31:20.695Z,-2.60
2024-01-10T19:33:52.055Z,-2.40
2024-01-10T19:36:20.362Z,-2.20
2024-01-10T19:38:51.501Z,-2.20
2024-01-10T19:41:26.337Z,-2.20
2024-01-10T19:43:53.729Z,-2.00
2024-01-10T19:46:21.046Z,-2.20
2024-01-10T19:48:50.750Z,-2.10
2024-01-10T19:51:18.366Z,-2.00
2024-01-10T19:53:49.714Z,-2.10
2024-01-10T19:56:18.199Z,-2.20
2024-01-10T19:58:46.010Z,-2.60
2024-01-10T20:01:13.496Z,-2.80
2024-01-10T20:03:40.719Z,-2.90
2024-01-10T20:06:08.283Z,-2.80
2024-01-10T20:08:35.668Z,-2.70
2024-01-10T20:11:02.591Z,-2.70
2024-01-10T20:13:29.724Z,-2.80
2024-01-10T20:15:56.936Z,-2.80
2024-01-10T20:18:24.289Z,-2.70
2024-01-10T20:20:51.659Z,-2.60
2024-01-10T20:23:18.791Z,-2.60
2024-01-10T20:25:45.694Z,-2.50
2024-01-10T20:28:16.833Z,-2.50
2024-01-10T20:30:43.723Z,-2.60
2024-01-10T20:33:12.114Z,-2.50
2024-01-10T20:35:39.265Z,-2.50
2024-01-10T20:38:06.421Z,-2.40
2024-01-10T20:40:34.228Z,-2.60
2024-01-10T20:43:04.471Z,-2.80
2024-01-10T20:45:31.528Z,-2.90
2024-01-10T20:47:58.675Z,-3.00
2024-01-10T20:50:25.615Z,-3.00
2024-01-10T20:52:52.741Z,-3.00
2024-01-10T20:55:19.745Z,-3.10
2024-01-10T20:57:46.990Z,-3.00
2024-01-10T21:00:14.249Z,-2.70
2024-01-10T21:02:41.487Z,-2.60
2024-01-10T21:05:09.346Z,-2.30
2024-01-10T21:07:36.593Z,-2.30
2024-01-10T21:10:04.250Z,-2.20
2024-01-10T21:12:31.597Z,-2.40
2024-01-10T21:14:58.750Z,-2.50
2024-01-10T21:17:27.225Z,-2.70
2024-01-10T21:19:54.507Z,-2.70
2024-01-10T21:22:21.751Z,-2.70
2024-01-10T21:24:48.649Z,-2.80
2024-01-10T21:27:15.903Z,-2.60
2024-01-10T21:29:42.824Z,-2.60
2024-01-10T21:32:09.979Z,-2.70
2024-01-10T21:34:37.162Z,-2.90
2024-01-10T21:37:04.868Z,-3.10
2024-01-10T21:39:31.880Z,-3.20
2024-01-10T21:41:58.903Z,-3.20
2024-01-10T21:44:26.022Z,-3.30
2024-01-10T21:46:53.194Z,-3.20
2024-01-10T21:49:20.544Z,-2.90
2024-01-10T21:51:47.594Z,-2.90
2024-01-10T21:54:14.917Z,-3.00
2024-01-10T21:56:42.145Z,-3.20
2024-01-10T21:59:09.589Z,-3.20
2024-01-10T22:01:36.489Z,-3.30
2024-01-10T22:04:05.307Z,-3.30
2024-01-10T22:06:33.412Z,-3.30
2024-01-10T22:09:00.545Z,-3.30
2024-01-10T22:11:27.647Z,-3.20
2024-01-10T22:13:56.949Z,-3.20
2024-01-10T22:16:24.189Z,-3.30
2024-01-10T22:18:51.269Z,-3.20
2024-01-10T22:21:18.394Z,-3.30
2024-01-10T22:23:47.922Z,-3.20
2024-01-10T22:26:14.991Z,-3.30
2024-01-10T22:28:42.228Z,-3.30
2024-01-10T22:31:09.217Z,-3.30
2024-01-10T22:33:36.557Z,-3.30
2024-01-10T22:36:04.049Z,-3.10
2024-01-10T22:38:32.109Z,-3.00
2024-01-10T22:40:59.538Z,-2.90
2024-01-10T22:43:26.728Z,-3.00
2024-01-10T22:45:53.752Z,-3.10
2024-01-10T22:48:22.043Z,-3.20
2024-01-10T22:50:50.295Z,-3.20
2024-01-10T22:53:17.387Z,-3.20
2024-01-10T22:55:44.910Z,-3.10
2024-01-10T22:58:12.168Z,-3.00
2024-01-10T23:00:39.084Z,-2.90
2024-01-10T23:03:06.409Z,-2.70
2024-01-10T23:05:33.885Z,-2.80
2024-01-10T23:08:01.205Z,-2.90
2024-01-10T23:10:28.351Z,-3.00
2024-01-10T23:12:55.243Z,-3.10
2024-01-10T23:15:24.239Z,-3.10
2024-01-10T23:17:51.618Z,-2.90
2024-01-10T23:20:18.996Z,-3.00
2024-01-10T23:22:47.589Z,-3.00
2024-01-10T23:25:14.787Z,-2.90
2024-01-10T23:27:44.112Z,-2.60
2024-01-10T23:30:15.432Z,-2.90
2024-01-10T23:32:44.155Z,-2.80
2024-01-10T23:35:12.784Z,-2.60
2024-01-10T23:37:40.166Z,-2.50
2024-01-10T23:40:08.114Z,-2.60
2024-01-10T23:42:35.100Z,-3.10
2024-01-10T23:45:02.130Z,-3.30
2024-01-10T23:47:29.145Z,-3.40
2024-01-10T23:49:56.240Z,-3.40
2024-01-10T23:52:23.213Z,-3.40
2024-01-10T23:54:50.330Z,-3.30
2024-01-10T23:57:17.369Z,-3.30
2024-01-10T23:59:44.426Z,-3.20
